createdAt,value
2018-12-20T00:00:41.253Z,5.57
2018-12-20T00:03:08.709Z,4.40
2018-12-20T00:05:36.607Z,5.00
2018-12-20T00:08:09.127Z,4.40
2018-12-20T00:13:09.104Z,3.73
2018-12-20T00:15:36.757Z,3.40
2018-12-20T00:18:10.840Z,3.33
2018-12-20T00:20:42.786Z,4.13
2018-12-20T00:23:10.413Z,2.80
2018-12-20T00:25:38.066Z,3.57
2018-12-20T00:28:14.075Z,4.58
2018-12-20T00:30:47.067Z,3.43
2018-12-20T00:33:18.725Z,3.50
2018-12-20T00:35:47.467Z,4.00
2018-12-20T00:38:18.078Z,5.13
2018-12-20T00:40:46.715Z,4.85
2018-12-20T00:43:19.741Z,5.17
2018-12-20T00:48:20.087Z,4.83
2018-12-20T00:50:47.707Z,6.10
2018-12-20T00:56:18.095Z,5.40
2018-12-20T00:58:47.223Z,5.30
2018-12-20T01:01:17.569Z,5.67
2018-12-20T01:03:48.156Z,6.17
2018-12-20T01:06:17.074Z,7.23
2018-12-20T01:08:44.644Z,6.70
2018-12-20T01:13:44.397Z,8.33
2018-12-20T01:16:12.149Z,7.60
2018-12-20T01:18:44.917Z,7.93
2018-12-20T01:21:14.170Z,7.90
2018-12-20T01:23:41.847Z,9.43
2018-12-20T01:26:11.985Z,8.80
2018-12-20T01:31:19.877Z,8.33
2018-12-20T01:33:53.691Z,8.27
2018-12-20T01:36:21.685Z,9.37
2018-12-20T01:38:51.611Z,8.63
2018-12-20T01:41:20.693Z,8.47
2018-12-20T01:46:21.173Z,9.00
2018-12-20T01:48:48.741Z,8.30
2018-12-20T01:51:22.330Z,8.70
2018-12-20T01:53:56.192Z,8.93
2018-12-20T01:56:28.412Z,9.30
2018-12-20T01:58:56.185Z,10.60
2018-12-20T02:01:24.667Z,9.07
2018-12-20T02:03:55.092Z,8.78
2018-12-20T02:06:22.583Z,9.03
2018-12-20T02:08:50.357Z,9.83
2018-12-20T02:11:22.923Z,8.90
2018-12-20T02:13:56.478Z,8.73
2018-12-20T02:19:04.656Z,8.40
2018-12-20T02:21:34.670Z,9.37
2018-12-20T02:24:03.856Z,9.50
2018-12-20T02:26:32.006Z,9.10
2018-12-20T02:31:31.686Z,9.00
2018-12-20T02:33:59.261Z,8.23
2018-12-20T02:36:32.580Z,8.88
2018-12-20T02:39:02.870Z,8.58
2018-12-20T02:41:32.383Z,9.10
2018-12-20T02:44:00.078Z,8.33
2018-12-20T02:46:32.638Z,9.27
2018-12-20T02:49:00.097Z,8.70
2018-12-20T02:51:29.188Z,8.70
2018-12-20T02:54:00.123Z,8.47
2018-12-20T02:56:32.893Z,9.10
2018-12-20T02:59:00.438Z,9.07
2018-12-20T03:01:28.736Z,9.17
2018-12-20T03:04:00.564Z,8.33
2018-12-20T03:06:32.396Z,9.90
2018-12-20T03:09:00.041Z,10.37
2018-12-20T03:11:27.696Z,9.27
2018-12-20T03:14:02.045Z,8.35
2018-12-20T03:16:35.241Z,10.53
2018-12-20T03:21:42.188Z,9.33
2018-12-20T03:24:09.950Z,9.97
2018-12-20T03:26:37.528Z,9.13
2018-12-20T03:29:11.149Z,8.70
2018-12-20T03:31:45.431Z,16.65
2018-12-20T03:34:19.916Z,13.67
2018-12-20T03:36:51.247Z,9.00
2018-12-20T03:39:18.885Z,7.33
2018-12-20T03:41:46.443Z,9.20
2018-12-20T03:44:22.394Z,7.97
2018-12-20T03:46:53.083Z,8.88
2018-12-20T03:54:26.714Z,8.47
2018-12-20T03:56:54.367Z,8.93
2018-12-20T03:59:28.413Z,9.23
2018-12-20T04:02:02.367Z,8.40
2018-12-20T04:04:36.413Z,9.70
2018-12-20T04:07:10.356Z,10.75
2018-12-20T04:09:42.851Z,10.70
2018-12-20T04:12:10.280Z,7.83
2018-12-20T04:14:37.766Z,8.47
2018-12-20T04:17:10.528Z,7.80
2018-12-20T04:22:10.326Z,7.20
2018-12-20T04:24:37.796Z,8.40
2018-12-20T04:27:10.907Z,8.40
2018-12-20T04:29:38.706Z,7.60
2018-12-20T04:32:07.884Z,8.10
2018-12-20T04:34:38.971Z,7.73
2018-12-20T04:37:09.500Z,8.20
2018-12-20T04:39:37.402Z,10.93
2018-12-20T04:42:05.573Z,7.70
2018-12-20T04:44:36.521Z,7.57
2018-12-20T04:47:04.478Z,7.30
2018-12-20T04:49:32.289Z,7.33
2018-12-20T04:52:02.273Z,7.67
2018-12-20T04:54:32.192Z,6.10
2018-12-20T04:56:59.849Z,6.70
2018-12-20T04:59:32.465Z,6.40
2018-12-20T05:02:05.350Z,5.40
2018-12-20T05:04:33.074Z,5.90
2018-12-20T05:07:00.788Z,5.50
2018-12-20T05:09:35.664Z,6.83
2018-12-20T05:12:09.511Z,6.73
2018-12-20T05:14:42.908Z,6.50
2018-12-20T05:17:17.640Z,5.33
2018-12-20T05:19:49.727Z,6.00
2018-12-20T05:22:22.616Z,5.90
2018-12-20T05:24:50.219Z,5.00
2018-12-20T05:27:19.435Z,5.98
2018-12-20T05:29:51.468Z,5.01
2018-12-20T05:32:24.703Z,6.10
2018-12-20T05:34:56.505Z,5.07
2018-12-20T05:37:24.190Z,4.97
2018-12-20T05:39:52.728Z,4.60
2018-12-20T05:42:25.055Z,4.17
2018-12-20T05:47:24.722Z,3.67
2018-12-20T05:49:52.225Z,3.83
2018-12-20T05:52:25.006Z,3.70
2018-12-20T05:54:52.889Z,2.80
2018-12-20T05:57:22.182Z,3.43
2018-12-20T05:59:56.039Z,2.80
2018-12-20T06:02:26.387Z,3.30
2018-12-20T06:04:58.926Z,2.63
2018-12-20T06:07:26.761Z,2.73
2018-12-20T06:09:54.585Z,2.42
2018-12-20T06:12:26.890Z,2.43
2018-12-20T06:17:35.221Z,2.40
2018-12-20T06:20:11.552Z,2.67
2018-12-20T06:22:46.426Z,3.50
2018-12-20T06:25:21.286Z,2.50
2018-12-20T06:27:51.455Z,2.50
2018-12-20T06:30:24.016Z,2.30
2018-12-20T06:32:51.580Z,2.17
2018-12-20T06:35:19.012Z,3.30
2018-12-20T06:37:51.594Z,2.95
2018-12-20T06:42:51.424Z,3.47
2018-12-20T06:45:18.911Z,2.43
2018-12-20T06:50:27.487Z,3.37
2018-12-20T06:52:59.812Z,2.70
2018-12-20T06:55:27.294Z,2.73
2018-12-20T06:57:54.782Z,3.00
2018-12-20T07:00:27.765Z,3.07
2018-12-20T07:03:00.593Z,2.63
2018-12-20T07:05:28.065Z,3.08
2018-12-20T07:07:55.545Z,2.63
2018-12-20T07:10:28.121Z,2.47
2018-12-20T07:13:01.073Z,4.57
2018-12-20T07:15:28.499Z,17.37
2018-12-20T07:17:56.722Z,18.27
2018-12-20T07:20:32.159Z,12.87
2018-12-20T07:23:03.019Z,6.80
2018-12-20T07:25:35.285Z,7.87
2018-12-20T07:28:02.763Z,4.67
2018-12-20T07:30:30.233Z,3.50
2018-12-20T07:33:02.526Z,3.17
2018-12-20T07:35:29.999Z,3.00
2018-12-20T07:37:57.614Z,6.33
2018-12-20T07:40:28.353Z,3.75
2018-12-20T07:42:56.723Z,2.63
2018-12-20T07:45:24.183Z,2.93
2018-12-20T07:47:56.342Z,2.57
2018-12-20T07:50:23.883Z,3.00
2018-12-20T07:52:51.369Z,3.30
2018-12-20T07:55:23.913Z,3.07
2018-12-20T07:57:51.370Z,3.20
2018-12-20T08:00:18.872Z,3.50
2018-12-20T08:02:52.179Z,3.63
2018-12-20T08:05:23.239Z,2.90
2018-12-20T08:07:50.665Z,4.40
2018-12-20T08:10:18.203Z,3.50
2018-12-20T08:12:50.572Z,4.00
2018-12-20T08:15:18.213Z,2.97
2018-12-20T08:17:45.734Z,3.10
2018-12-20T08:20:19.039Z,3.10
2018-12-20T08:22:53.175Z,3.07
2018-12-20T08:25:25.344Z,3.60
2018-12-20T08:27:52.865Z,3.67
2018-12-20T08:30:20.331Z,3.17
2018-12-20T08:32:52.644Z,3.60
2018-12-20T08:35:20.169Z,4.00
2018-12-20T08:37:48.390Z,3.40
2018-12-20T08:40:19.957Z,2.90
2018-12-20T08:42:49.606Z,3.23
2018-12-20T08:45:19.913Z,3.10
2018-12-20T08:47:47.344Z,4.62
2018-12-20T08:50:21.473Z,4.40
2018-12-20T08:52:53.708Z,5.03
2018-12-20T08:55:21.143Z,3.27
2018-12-20T08:57:48.631Z,3.90
2018-12-20T09:00:23.914Z,3.13
2018-12-20T09:02:56.515Z,3.37
2018-12-20T09:05:32.640Z,2.80
2018-12-20T09:08:07.148Z,3.20
2018-12-20T09:10:38.061Z,3.20
2018-12-20T09:13:10.154Z,3.80
2018-12-20T09:15:37.587Z,3.70
2018-12-20T09:18:05.124Z,3.70
2018-12-20T09:20:39.028Z,3.57
2018-12-20T09:23:11.433Z,3.30
2018-12-20T09:25:38.889Z,3.42
2018-12-20T09:28:06.376Z,2.57
2018-12-20T09:30:39.932Z,3.60
2018-12-20T09:33:15.240Z,4.30
2018-12-20T09:35:47.066Z,2.83
2018-12-20T09:38:20.301Z,2.47
2018-12-20T09:40:47.743Z,2.70
2018-12-20T09:43:15.231Z,2.10
2018-12-20T09:45:47.351Z,2.80
2018-12-20T09:48:14.785Z,3.00
2018-12-20T09:50:42.317Z,3.47
2018-12-20T09:53:16.752Z,2.40
2018-12-20T09:55:48.697Z,2.37
2018-12-20T09:58:21.092Z,2.53
2018-12-20T10:00:48.613Z,2.20
2018-12-20T10:03:16.091Z,1.97
2018-12-20T10:05:48.715Z,2.87
2018-12-20T10:08:16.151Z,2.67
2018-12-20T10:10:43.608Z,3.40
2018-12-20T10:13:15.121Z,2.95
2018-12-20T10:15:42.570Z,2.07
2018-12-20T10:18:10.027Z,2.40
2018-12-20T10:20:42.069Z,2.23
2018-12-20T10:23:09.549Z,2.00
2018-12-20T10:25:37.515Z,2.67
2018-12-20T10:28:09.579Z,1.80
2018-12-20T10:30:38.439Z,2.27
2018-12-20T10:33:07.815Z,2.00
2018-12-20T10:35:36.784Z,2.47
2018-12-20T10:38:09.687Z,2.43
2018-12-20T10:40:37.195Z,2.30
2018-12-20T10:43:04.763Z,3.43
2018-12-20T10:45:37.068Z,2.45
2018-12-20T10:50:37.021Z,2.00
2018-12-20T10:53:04.539Z,1.53
2018-12-20T10:55:33.373Z,2.07
2018-12-20T10:58:01.155Z,2.97
2018-12-20T11:00:32.795Z,1.60
2018-12-20T11:03:10.010Z,1.90
2018-12-20T11:05:44.535Z,1.70
2018-12-20T11:08:18.738Z,1.70
2018-12-20T11:10:46.949Z,2.22
2018-12-20T11:13:35.205Z,1.70
2018-12-20T11:16:02.628Z,1.63
2018-12-20T11:18:30.159Z,1.80
2018-12-20T11:21:00.678Z,2.07
2018-12-20T11:23:28.462Z,2.50
2018-12-20T11:25:55.951Z,1.90
2018-12-20T11:28:30.004Z,2.40
2018-12-20T11:31:02.641Z,6.83
2018-12-20T11:33:30.052Z,3.45
2018-12-20T11:35:58.425Z,2.27
2018-12-20T11:38:31.766Z,1.60
2018-12-20T11:41:04.508Z,2.07
2018-12-20T11:43:36.902Z,1.97
2018-12-20T11:46:04.385Z,1.87
2018-12-20T11:48:31.880Z,1.70
2018-12-20T11:51:06.129Z,1.87
2018-12-20T11:53:39.482Z,1.85
2018-12-20T11:56:11.417Z,1.80
2018-12-20T11:58:38.884Z,1.50
2018-12-20T12:01:06.397Z,2.23
2018-12-20T12:03:39.572Z,2.30
2018-12-20T12:06:11.548Z,2.33
2018-12-20T12:08:39.000Z,2.03
2018-12-20T12:11:06.516Z,2.03
2018-12-20T12:13:40.496Z,1.87
2018-12-20T12:16:13.017Z,2.40
2018-12-20T12:18:40.449Z,2.47
2018-12-20T12:21:08.035Z,1.90
2018-12-20T12:23:40.281Z,1.53
2018-12-20T12:26:07.778Z,2.42
2018-12-20T12:28:35.272Z,1.80
2018-12-20T12:31:08.755Z,11.80
2018-12-20T12:33:42.359Z,2.67
2018-12-20T12:36:14.112Z,2.00
2018-12-20T12:38:41.582Z,1.70
2018-12-20T12:41:09.655Z,2.50
2018-12-20T12:43:42.159Z,1.90
2018-12-20T12:46:10.973Z,2.30
2018-12-20T12:48:38.523Z,1.97
2018-12-20T12:51:09.961Z,1.80
2018-12-20T12:53:41.958Z,2.10
2018-12-20T12:56:09.447Z,1.87
2018-12-20T12:58:37.746Z,1.60
2018-12-20T13:01:09.574Z,2.02
2018-12-20T13:03:38.224Z,1.90
2018-12-20T13:06:05.707Z,1.63
2018-12-20T13:08:36.656Z,2.17
2018-12-20T13:11:09.067Z,2.37
2018-12-20T13:13:36.501Z,2.20
2018-12-20T13:16:04.507Z,2.10
2018-12-20T13:18:36.785Z,1.80
2018-12-20T13:21:09.051Z,2.23
2018-12-20T13:23:36.513Z,1.97
2018-12-20T13:26:04.328Z,2.63
2018-12-20T13:28:36.685Z,2.53
2018-12-20T13:31:04.313Z,2.70
2018-12-20T13:33:31.793Z,2.12
2018-12-20T13:36:04.418Z,2.90
2018-12-20T13:38:32.776Z,2.23
2018-12-20T13:41:00.292Z,2.27
2018-12-20T13:43:29.453Z,2.70
2018-12-20T13:45:56.933Z,3.20
2018-12-20T13:48:25.111Z,2.37
2018-12-20T13:50:57.509Z,2.03
2018-12-20T13:53:26.287Z,2.73
2018-12-20T13:55:55.054Z,2.37
2018-12-20T13:58:25.481Z,2.50
2018-12-20T14:00:57.575Z,2.50
2018-12-20T14:03:25.017Z,2.70
2018-12-20T14:05:53.491Z,2.20
2018-12-20T14:08:27.308Z,2.47
2018-12-20T14:10:59.106Z,3.50
2018-12-20T14:13:31.601Z,2.53
2018-12-20T14:15:59.107Z,2.20
2018-12-20T14:18:30.782Z,2.57
2018-12-20T14:21:00.764Z,2.63
2018-12-20T14:23:34.641Z,2.60
2018-12-20T14:26:06.551Z,2.30
2018-12-20T14:28:34.711Z,3.20
2018-12-20T14:31:02.273Z,7.80
2018-12-20T14:33:34.788Z,3.33
2018-12-20T14:38:34.404Z,2.67
2018-12-20T14:41:02.267Z,2.80
2018-12-20T14:43:34.441Z,2.50
2018-12-20T14:46:02.055Z,3.00
2018-12-20T14:48:29.669Z,2.27
2018-12-20T14:51:01.577Z,2.13
2018-12-20T14:53:32.843Z,2.77
2018-12-20T14:56:01.395Z,3.07
2018-12-20T14:58:28.880Z,3.30
2018-12-20T15:01:01.812Z,2.63
2018-12-20T15:03:29.305Z,3.23
2018-12-20T15:05:58.963Z,2.87
2018-12-20T15:08:29.900Z,2.63
2018-12-20T15:11:00.287Z,2.67
2018-12-20T15:13:29.031Z,2.77
2018-12-20T15:15:57.347Z,3.58
2018-12-20T15:18:29.060Z,2.70
2018-12-20T15:20:56.923Z,3.10
2018-12-20T15:23:24.455Z,2.70
2018-12-20T15:25:55.571Z,3.10
2018-12-20T15:28:23.221Z,16.07
2018-12-20T15:30:50.737Z,8.23
2018-12-20T15:33:23.616Z,3.10
2018-12-20T15:35:55.296Z,2.90
2018-12-20T15:38:22.903Z,2.53
2018-12-20T15:40:51.628Z,2.92
2018-12-20T15:43:24.025Z,3.12
2018-12-20T15:45:57.018Z,3.00
2018-12-20T15:48:24.470Z,3.15
2018-12-20T15:50:52.017Z,2.67
2018-12-20T15:53:25.103Z,2.60
2018-12-20T15:58:24.813Z,2.90
2018-12-20T16:00:52.332Z,2.80
2018-12-20T16:03:24.381Z,3.60
2018-12-20T16:05:52.457Z,3.40
2018-12-20T16:08:19.919Z,3.27
2018-12-20T16:10:52.342Z,6.73
2018-12-20T16:13:24.679Z,2.83
2018-12-20T16:15:52.402Z,2.83
2018-12-20T16:18:19.936Z,2.45
2018-12-20T16:20:53.271Z,2.67
2018-12-20T16:23:26.122Z,2.50
2018-12-20T16:25:53.657Z,3.22
2018-12-20T16:28:21.185Z,2.70
2018-12-20T16:30:55.659Z,2.90
2018-12-20T16:33:27.877Z,3.37
2018-12-20T16:35:56.032Z,3.07
2018-12-20T16:38:24.488Z,2.40
2018-12-20T16:41:01.669Z,3.17
2018-12-20T16:43:30.611Z,2.42
2018-12-20T16:46:03.330Z,3.67
2018-12-20T16:48:34.309Z,3.50
2018-12-20T16:51:02.747Z,3.13
2018-12-20T16:53:31.143Z,18.30
2018-12-20T16:56:02.680Z,4.97
2018-12-20T16:58:30.192Z,3.20
2018-12-20T17:00:57.665Z,3.63
2018-12-20T17:03:29.930Z,3.52
2018-12-20T17:05:57.462Z,3.20
2018-12-20T17:08:25.068Z,3.75
2018-12-20T17:10:56.312Z,3.37
2018-12-20T17:13:23.896Z,3.23
2018-12-20T17:15:53.138Z,2.80
2018-12-20T17:18:25.332Z,4.07
2018-12-20T17:20:57.343Z,2.97
2018-12-20T17:23:24.835Z,3.30
2018-12-20T17:25:53.931Z,6.97
2018-12-20T17:28:25.371Z,6.13
2018-12-20T17:33:29.387Z,3.20
2018-12-20T17:35:56.972Z,2.90
2018-12-20T17:38:27.892Z,3.30
2018-12-20T17:40:59.426Z,2.93
2018-12-20T17:43:27.005Z,2.83
2018-12-20T17:45:54.531Z,3.13
2018-12-20T17:48:29.396Z,3.57
2018-12-20T17:51:02.629Z,4.60
2018-12-20T17:53:36.341Z,3.40
2018-12-20T17:56:08.949Z,2.70
2018-12-20T18:01:08.803Z,5.83
2018-12-20T18:03:36.477Z,3.90
2018-12-20T18:06:08.319Z,3.30
2018-12-20T18:08:35.893Z,4.07
2018-12-20T18:11:03.350Z,4.35
2018-12-20T18:13:35.808Z,3.50
2018-12-20T18:16:04.924Z,3.10
2018-12-20T18:18:33.812Z,2.90
2018-12-20T18:21:04.502Z,3.23
2018-12-20T18:23:37.330Z,2.90
2018-12-20T18:26:09.802Z,3.20
2018-12-20T18:28:37.352Z,3.43
2018-12-20T18:31:04.893Z,3.67
2018-12-20T18:33:37.430Z,3.53
2018-12-20T18:38:37.750Z,4.50
2018-12-20T18:41:05.927Z,11.53
2018-12-20T18:43:39.926Z,3.73
2018-12-20T18:46:13.589Z,4.33
2018-12-20T18:48:45.269Z,3.80
2018-12-20T18:51:13.040Z,3.13
2018-12-20T18:53:40.654Z,3.45
2018-12-20T18:56:12.512Z,3.10
2018-12-20T19:01:12.632Z,3.80
2018-12-20T19:03:40.092Z,3.63
2018-12-20T19:06:10.218Z,3.50
2018-12-20T19:08:37.773Z,4.05
2018-12-20T19:11:07.485Z,3.90
2018-12-20T19:13:39.180Z,3.70
2018-12-20T19:16:07.666Z,3.80
2018-12-20T19:18:35.300Z,7.00
2018-12-20T19:21:07.197Z,25.13
2018-12-20T19:23:36.749Z,7.40
2018-12-20T19:26:07.199Z,3.63
2018-12-20T19:28:34.945Z,4.70
2018-12-20T19:31:07.201Z,3.70
2018-12-20T19:33:34.745Z,3.97
2018-12-20T19:36:02.387Z,4.13
2018-12-20T19:38:34.627Z,4.20
2018-12-20T19:41:03.799Z,4.12
2018-12-20T19:43:31.284Z,4.60
2018-12-20T19:46:01.934Z,4.08
2018-12-20T19:48:35.007Z,5.03
2018-12-20T19:51:02.488Z,3.90
2018-12-20T19:53:29.973Z,3.67
2018-12-20T19:56:02.801Z,3.80
2018-12-20T19:58:32.679Z,4.00
2018-12-20T20:01:01.833Z,4.50
2018-12-20T20:03:29.543Z,3.60
2018-12-20T20:06:01.736Z,4.07
2018-12-20T20:08:29.936Z,4.60
2018-12-20T20:10:57.377Z,3.73
2018-12-20T20:13:30.927Z,3.60
2018-12-20T20:16:05.120Z,3.70
2018-12-20T20:18:36.914Z,3.80
2018-12-20T20:21:04.637Z,4.13
2018-12-20T20:23:32.128Z,3.98
2018-12-20T20:26:03.575Z,2.90
2018-12-20T20:28:31.165Z,3.80
2018-12-20T20:30:59.296Z,4.00
2018-12-20T20:33:31.455Z,3.60
2018-12-20T20:38:32.219Z,3.60
2018-12-20T20:40:59.810Z,3.60
2018-12-20T20:43:33.693Z,5.00
2018-12-20T20:46:07.178Z,4.60
2018-12-20T20:48:41.825Z,3.80
2018-12-20T20:51:16.181Z,4.10
2018-12-20T20:53:48.085Z,3.80
2018-12-20T20:56:16.435Z,3.53
2018-12-20T20:58:44.452Z,3.90
2018-12-20T21:01:14.146Z,3.27
2018-12-20T21:03:41.616Z,2.93
2018-12-20T21:06:10.029Z,3.75
2018-12-20T21:08:40.838Z,2.97
2018-12-20T21:11:08.302Z,3.43
2018-12-20T21:13:39.412Z,3.63
2018-12-20T21:16:08.342Z,4.30
2018-12-20T21:18:36.013Z,3.53
2018-12-20T21:21:03.840Z,4.63
2018-12-20T21:23:34.204Z,5.73
2018-12-20T21:26:01.682Z,4.20
2018-12-20T21:28:29.224Z,3.50
2018-12-20T21:31:02.329Z,3.87
2018-12-20T21:33:36.220Z,3.90
2018-12-20T21:36:14.861Z,4.20
2018-12-20T21:38:44.862Z,3.73
2018-12-20T21:41:18.919Z,4.07
2018-12-20T21:43:51.833Z,3.30
2018-12-20T21:48:52.351Z,4.40
2018-12-20T21:51:19.811Z,2.67
2018-12-20T21:53:54.932Z,4.50
2018-12-20T21:56:26.831Z,5.30
2018-12-20T21:58:56.312Z,3.87
2018-12-20T22:01:25.083Z,3.80
2018-12-20T22:03:53.940Z,4.27
2018-12-20T22:06:21.861Z,3.67
2018-12-20T22:08:49.659Z,3.80
2018-12-20T22:11:20.627Z,4.53
2018-12-20T22:13:54.435Z,3.83
2018-12-20T22:18:55.233Z,3.63
2018-12-20T22:21:22.751Z,4.20
2018-12-20T22:23:56.025Z,4.43
2018-12-20T22:26:28.735Z,3.03
2018-12-20T22:28:56.389Z,3.55
2018-12-20T22:31:24.129Z,3.63
2018-12-20T22:33:56.442Z,4.53
2018-12-20T22:36:29.649Z,4.67
2018-12-20T22:38:57.155Z,4.20
2018-12-20T22:41:24.583Z,3.17
2018-12-20T22:43:56.933Z,3.70
2018-12-20T22:46:33.029Z,3.30
2018-12-20T22:49:03.961Z,3.60
2018-12-20T22:51:31.470Z,3.67
2018-12-20T22:53:58.972Z,3.30
2018-12-20T22:56:32.033Z,4.00
2018-12-20T23:01:35.738Z,3.67
2018-12-20T23:04:05.641Z,3.43
2018-12-20T23:06:33.133Z,2.73
2018-12-20T23:09:05.412Z,3.02
2018-12-20T23:11:33.207Z,2.63
2018-12-20T23:14:01.624Z,2.87
2018-12-20T23:16:33.364Z,3.77
2018-12-20T23:21:32.824Z,3.50
2018-12-20T23:24:00.296Z,2.97
2018-12-20T23:26:34.968Z,3.18
2018-12-20T23:29:09.653Z,3.13
2018-12-20T23:31:42.221Z,3.15
2018-12-20T23:37:06.341Z,3.07
2018-12-20T23:39:39.955Z,3.00
2018-12-20T23:42:12.905Z,2.83
2018-12-20T23:44:41.954Z,2.73
2018-12-20T23:47:09.423Z,3.08
2018-12-20T23:49:39.735Z,2.90
2018-12-20T23:54:39.748Z,2.80
2018-12-20T23:57:07.561Z,2.52
2018-12-20T23:59:41.549Z,2.63
